Time,TemperatureF,DewpointF,PressureIn,WindDirection,WindDirectionDegrees,WindSpeedMPH,WindSpeedGustMPH,Humidity,HourlyPrecipIn,Conditions,Clouds,dailyrainin,SoftwareType,DateUTC
2013-05-02 00:00:00,67.6,62.0,17.72,North,4,0.0,0.0,82,0.00,,---,0.00,VWS V14.00,2013-05-02 04:00:00,
2013-05-02 00:01:00,67.6,62.0,17.72,North,4,0.0,0.0,82,0.00,,---,0.00,VWS V14.00,2013-05-02 04:01:00,
2013-05-02 00:06:00,67.8,62.1,17.72,North,4,0.0,0.0,82,0.00,,---,0.00,VWS V14.00,2013-05-02 04:06:00,
2013-05-02 00:11:00,67.8,62.1,17.72,North,4,0.0,0.0,82,0.00,,---,0.00,VWS V14.00,2013-05-02 04:11:00,
2013-05-02 00:16:00,67.8,62.1,17.72,North,4,0.0,0.0,82,0.00,,---,0.00,VWS V14.00,2013-05-02 04:16:00,
2013-05-02 00:21:00,67.8,62.1,17.72,North,4,0.0,0.0,82,0.00,,---,0.00,VWS V14.00,2013-05-02 04:21:00,
2013-05-02 00:26:00,68.0,62.3,17.72,North,4,0.0,0.0,82,0.00,,---,0.00,VWS V14.00,2013-05-02 04:26:00,
2013-05-02 00:31:00,68.0,62.3,17.72,North,4,0.0,0.0,82,0.00,,---,0.00,VWS V14.00,2013-05-02 04:31:00,
2013-05-02 00:36:00,68.0,62.3,17.72,North,4,0.0,0.0,82,0.00,,---,0.00,VWS V14.00,2013-05-02 04:36:00,
2013-05-02 00:41:00,68.0,62.3,17.72,North,4,0.0,0.0,82,0.00,,---,0.00,VWS V14.00,2013-05-02 04:41:00,
2013-05-02 00:46:00,68.2,62.5,17.72,North,4,0.0,0.0,82,0.00,,---,0.00,VWS V14.00,2013-05-02 04:46:00,
2013-05-02 00:51:00,68.2,62.5,17.72,North,4,0.0,0.0,82,0.00,,---,0.00,VWS V14.00,2013-05-02 04:51:00,
2013-05-02 00:56:00,68.2,62.5,17.72,North,4,0.0,0.0,82,0.00,,---,0.00,VWS V14.00,2013-05-02 04:56:00,
2013-05-02 01:01:00,68.2,62.5,17.72,North,4,0.0,0.0,82,0.00,,---,0.00,VWS V14.00,2013-05-02 05:01:00,
2013-05-02 01:06:00,68.2,62.5,17.72,North,4,0.0,0.0,82,0.00,,---,0.00,VWS V14.00,2013-05-02 05:06:00,
2013-05-02 01:11:00,68.2,62.5,17.72,North,4,0.0,0.0,82,0.00,,---,0.00,VWS V14.00,2013-05-02 05:11:00,
2013-05-02 01:16:00,68.2,62.5,17.72,North,4,0.0,0.0,82,0.00,,---,0.00,VWS V14.00,2013-05-02 05:16:00,
2013-05-02 01:21:00,68.2,62.5,17.72,North,4,0.0,0.0,82,0.00,,---,0.00,VWS V14.00,2013-05-02 05:21:00,
2013-05-02 01:26:00,68.2,62.5,17.72,North,4,0.0,0.0,82,0.00,,---,0.00,VWS V14.00,2013-05-02 05:26:00,
2013-05-02 01:31:00,68.2,62.5,17.72,North,4,0.0,0.0,82,0.00,,---,0.00,VWS V14.00,2013-05-02 05:31:00,
2013-05-02 01:36:00,68.2,62.5,17.72,North,4,0.0,0.0,82,0.00,,---,0.00,VWS V14.00,2013-05-02 05:36:00,
2013-05-02 01:41:00,68.2,62.8,17.72,North,4,0.0,0.0,83,0.00,,---,0.00,VWS V14.00,2013-05-02 05:41:00,
2013-05-02 01:46:00,68.2,62.8,17.72,North,4,0.0,0.0,83,0.00,,---,0.00,VWS V14.00,2013-05-02 05:46:00,
2013-05-02 01:51:00,68.2,62.8,17.72,North,4,0.0,0.0,83,0.00,,---,0.00,VWS V14.00,2013-05-02 05:51:00,
2013-05-02 01:56:00,68.0,62.7,17.72,North,4,0.0,0.0,83,0.00,,---,0.00,VWS V14.00,2013-05-02 05:56:00,
2013-05-02 02:01:00,67.8,62.8,17.72,North,4,0.0,0.0,84,0.00,,---,0.00,VWS V14.00,2013-05-02 06:01:00,
2013-05-02 02:06:00,67.5,62.1,17.72,North,4,0.0,0.0,83,0.00,,---,0.00,VWS V14.00,2013-05-02 06:06:00,
2013-05-02 02:11:00,67.5,62.1,17.72,North,4,0.0,0.0,83,0.00,,---,0.00,VWS V14.00,2013-05-02 06:11:00,
2013-05-02 02:16:00,66.9,61.6,17.72,North,4,0.0,0.0,83,0.00,,---,0.00,VWS V14.00,2013-05-02 06:16:00,
2013-05-02 02:21:00,66.7,61.1,17.72,North,4,0.0,0.0,82,0.00,,---,0.00,VWS V14.00,2013-05-02 06:21:00,
2013-05-02 02:26:00,66.2,59.9,17.72,NE,35,0.0,0.0,80,0.00,,---,0.00,VWS V14.00,2013-05-02 06:26:00,
2013-05-02 02:31:00,65.8,58.8,17.72,NE,35,0.0,0.0,78,0.00,,---,0.00,VWS V14.00,2013-05-02 06:31:00,
2013-05-02 02:36:00,65.5,57.7,17.72,NE,35,0.0,0.0,76,0.00,,---,0.00,VWS V14.00,2013-05-02 06:36:00,
2013-05-02 02:41:00,65.5,57.4,17.72,NE,35,0.0,0.0,75,0.00,,---,0.00,VWS V14.00,2013-05-02 06:41:00,
2013-05-02 02:46:00,65.3,57.2,17.72,NE,35,0.0,0.0,75,0.00,,---,0.00,VWS V14.00,2013-05-02 06:46:00,
2013-05-02 02:51:00,65.3,56.8,17.72,NE,35,0.0,0.0,74,0.00,,---,0.00,VWS V14.00,2013-05-02 06:51:00,
2013-05-02 02:56:00,65.1,56.6,17.72,NE,35,0.0,0.0,74,0.00,,---,0.00,VWS V14.00,2013-05-02 06:56:00,
2013-05-02 03:01:00,65.3,57.2,17.72,NE,35,0.0,0.0,75,0.00,,---,0.00,VWS V14.00,2013-05-02 07:01:00,
2013-05-02 03:06:00,65.3,57.5,17.72,NE,35,0.0,0.0,76,0.00,,---,0.00,VWS V14.00,2013-05-02 07:06:00,
2013-05-02 03:11:00,65.3,57.2,17.72,NE,35,0.0,0.0,75,0.00,,---,0.00,VWS V14.00,2013-05-02 07:11:00,
2013-05-02 03:16:00,65.3,57.5,17.72,NE,35,0.0,0.0,76,0.00,,---,0.00,VWS V14.00,2013-05-02 07:16:00,
2013-05-02 03:21:00,65.3,57.5,17.72,NE,35,0.0,0.0,76,0.00,,---,0.00,VWS V14.00,2013-05-02 07:21:00,
2013-05-02 03:26:00,65.3,57.5,17.72,NE,35,0.0,0.0,76,0.00,,---,0.00,VWS V14.00,2013-05-02 07:26:00,
2013-05-02 03:31:00,65.5,58.5,17.72,NE,35,0.0,0.0,78,0.00,,---,0.00,VWS V14.00,2013-05-02 07:31:00,
2013-05-02 03:36:00,65.5,58.5,17.72,NE,35,0.0,0.0,78,0.00,,---,0.00,VWS V14.00,2013-05-02 07:36:00,
2013-05-02 03:41:00,65.5,58.8,17.72,NE,41,0.0,0.0,79,0.00,,---,0.00,VWS V14.00,2013-05-02 07:41:00,
2013-05-02 03:46:00,65.5,58.5,17.72,NE,41,0.0,0.0,78,0.00,,---,0.00,VWS V14.00,2013-05-02 07:46:00,
2013-05-02 03:51:00,65.5,58.5,17.72,NE,41,0.0,0.0,78,0.00,,---,0.00,VWS V14.00,2013-05-02 07:51:00,
2013-05-02 03:56:00,65.5,58.8,17.72,NNE,16,0.0,0.0,79,0.00,,---,0.00,VWS V14.00,2013-05-02 07:56:00,
2013-05-02 04:01:00,65.5,58.8,17.72,NNE,16,0.0,0.0,79,0.00,,---,0.00,VWS V14.00,2013-05-02 08:01:00,
2013-05-02 04:06:00,65.3,58.6,17.72,NNE,16,0.0,0.0,79,0.00,,---,0.00,VWS V14.00,2013-05-02 08:06:00,
2013-05-02 04:11:00,65.3,58.6,17.72,NNE,16,0.0,0.0,79,0.00,,---,0.00,VWS V14.00,2013-05-02 08:11:00,
2013-05-02 04:16:00,65.1,58.8,17.72,North,4,0.0,0.0,80,0.00,,---,0.00,VWS V14.00,2013-05-02 08:16:00,
2013-05-02 04:21:00,65.1,58.8,17.72,North,4,0.0,0.0,80,0.00,,---,0.00,VWS V14.00,2013-05-02 08:21:00,
2013-05-02 04:26:00,64.9,58.6,17.72,North,4,0.0,0.0,80,0.00,,---,0.00,VWS V14.00,2013-05-02 08:26:00,
2013-05-02 04:31:00,64.8,58.5,17.72,North,4,0.0,0.0,80,0.00,,---,0.00,VWS V14.00,2013-05-02 08:31:00,
2013-05-02 04:36:00,64.8,58.5,17.72,North,4,0.0,0.0,80,0.00,,---,0.00,VWS V14.00,2013-05-02 08:36:00,
2013-05-02 04:41:00,64.6,58.3,17.72,North,5,0.0,0.0,80,0.00,,---,0.00,VWS V14.00,2013-05-02 08:41:00,
2013-05-02 04:46:00,64.6,58.3,17.72,North,5,0.0,0.0,80,0.00,,---,0.00,VWS V14.00,2013-05-02 08:46:00,
2013-05-02 04:51:00,64.6,58.3,17.72,North,5,0.0,0.0,80,0.00,,---,0.00,VWS V14.00,2013-05-02 08:51:00,
2013-05-02 04:56:00,64.8,58.8,17.72,North,5,0.0,0.0,81,0.00,,---,0.00,VWS V14.00,2013-05-02 08:56:00,
2013-05-02 05:01:00,64.8,58.8,17.72,North,5,0.0,0.0,81,0.00,,---,0.00,VWS V14.00,2013-05-02 09:01:00,
2013-05-02 05:06:00,64.6,58.3,17.72,North,5,0.0,0.0,80,0.00,,---,0.00,VWS V14.00,2013-05-02 09:06:00,
2013-05-02 05:11:00,64.6,58.6,17.72,North,5,0.0,0.0,81,0.00,,---,0.00,VWS V14.00,2013-05-02 09:11:00,
2013-05-02 05:16:00,64.6,58.6,17.72,North,5,0.0,0.0,81,0.00,,---,0.00,VWS V14.00,2013-05-02 09:16:00,
2013-05-02 05:21:00,64.6,58.6,17.72,North,5,0.0,0.0,81,0.00,,---,0.00,VWS V14.00,2013-05-02 09:21:00,
2013-05-02 05:26:00,64.8,58.8,17.72,North,5,0.0,0.0,81,0.00,,---,0.00,VWS V14.00,2013-05-02 09:26:00,
2013-05-02 05:31:00,64.8,58.8,17.72,North,5,0.0,0.0,81,0.00,,---,0.00,VWS V14.00,2013-05-02 09:31:00,
2013-05-02 05:36:00,64.6,58.6,17.72,North,5,0.0,0.0,81,0.00,,---,0.00,VWS V14.00,2013-05-02 09:36:00,
2013-05-02 05:41:00,64.8,58.8,17.72,North,5,0.0,0.0,81,0.00,,---,0.00,VWS V14.00,2013-05-02 09:41:00,
2013-05-02 05:46:00,64.8,58.8,17.72,North,5,0.0,0.0,81,0.00,,---,0.00,VWS V14.00,2013-05-02 09:46:00,
2013-05-02 05:51:00,64.8,58.8,17.72,North,5,0.0,0.0,81,0.00,,---,0.00,VWS V14.00,2013-05-02 09:51:00,
2013-05-02 05:56:00,64.8,58.8,17.72,North,5,0.0,0.0,81,0.00,,---,0.00,VWS V14.00,2013-05-02 09:56:00,
2013-05-02 06:01:00,64.8,58.8,17.72,North,5,0.0,0.0,81,0.00,,---,0.00,VWS V14.00,2013-05-02 10:01:00,
2013-05-02 06:06:00,64.9,59.3,17.72,North,5,0.0,0.0,82,0.00,,---,0.00,VWS V14.00,2013-05-02 10:06:00,
2013-05-02 06:11:00,64.9,59.3,17.72,North,5,0.0,0.0,82,0.00,,---,0.00,VWS V14.00,2013-05-02 10:11:00,
2013-05-02 06:16:00,64.9,59.3,17.72,North,5,0.0,0.0,82,0.00,,---,0.00,VWS V14.00,2013-05-02 10:16:00,
2013-05-02 06:21:00,64.9,59.3,17.72,North,5,0.0,0.0,82,0.00,,---,0.00,VWS V14.00,2013-05-02 10:21:00,
2013-05-02 06:26:00,65.1,59.5,17.72,North,5,0.0,0.0,82,0.00,,---,0.00,VWS V14.00,2013-05-02 10:26:00,
2013-05-02 06:31:00,65.1,59.5,17.72,North,5,0.0,0.0,82,0.00,,---,0.00,VWS V14.00,2013-05-02 10:31:00,
2013-05-02 06:36:00,65.1,59.5,17.72,North,5,0.0,0.0,82,0.00,,---,0.00,VWS V14.00,2013-05-02 10:36:00,
2013-05-02 06:41:00,65.1,59.5,17.72,North,5,0.0,0.0,82,0.00,,---,0.00,VWS V14.00,2013-05-02 10:41:00,
2013-05-02 06:46:00,65.3,60.0,17.72,North,5,0.0,0.0,83,0.00,,---,0.00,VWS V14.00,2013-05-02 10:46:00,
2013-05-02 06:51:00,65.5,60.2,17.72,North,5,0.0,0.0,83,0.00,,---,0.00,VWS V14.00,2013-05-02 10:51:00,
2013-05-02 06:56:00,65.3,59.7,17.72,SE,130,0.0,0.0,82,0.00,,---,0.00,VWS V14.00,2013-05-02 10:56:00,
2013-05-02 07:01:00,65.3,59.7,17.72,SE,130,0.0,0.0,82,0.00,,---,0.00,VWS V14.00,2013-05-02 11:01:00,
2013-05-02 07:06:00,65.5,60.2,17.72,North,5,0.0,0.0,83,0.00,,---,0.00,VWS V14.00,2013-05-02 11:06:00,
2013-05-02 07:11:00,65.7,60.4,17.72,North,5,0.0,0.0,83,0.00,,---,0.00,VWS V14.00,2013-05-02 11:11:00,
2013-05-02 07:16:00,65.7,60.4,17.72,North,5,0.0,0.0,83,0.00,,---,0.00,VWS V14.00,2013-05-02 11:16:00,
2013-05-02 07:21:00,65.8,60.5,17.72,North,5,0.0,0.0,83,0.00,,---,0.00,VWS V14.00,2013-05-02 11:21:00,
2013-05-02 07:26:00,66.0,60.7,17.72,North,5,0.0,0.0,83,0.00,,---,0.00,VWS V14.00,2013-05-02 11:26:00,
2013-05-02 07:31:00,66.0,60.7,17.72,North,5,0.0,0.0,83,0.00,,---,0.00,VWS V14.00,2013-05-02 11:31:00,
2013-05-02 07:36:00,66.2,60.9,17.72,North,5,0.0,0.0,83,0.00,,---,0.00,VWS V14.00,2013-05-02 11:36:00,
2013-05-02 07:41:00,66.4,61.1,17.72,North,5,0.0,0.0,83,0.00,,---,0.00,VWS V14.00,2013-05-02 11:41:00,
2013-05-02 07:46:00,66.6,61.2,17.72,North,5,0.0,0.0,83,0.00,,---,0.00,VWS V14.00,2013-05-02 11:46:00,
2013-05-02 07:51:00,66.7,61.4,17.72,North,5,0.0,0.0,83,0.00,,---,0.00,VWS V14.00,2013-05-02 11:51:00,
2013-05-02 07:56:00,67.1,61.8,17.72,North,5,0.0,0.0,83,0.00,,---,0.00,VWS V14.00,2013-05-02 11:56:00,
2013-05-02 08:01:00,67.1,61.8,17.72,North,5,0.0,0.0,83,0.00,,---,0.00,VWS V14.00,2013-05-02 12:01:00,
2013-05-02 08:06:00,67.5,62.1,17.72,North,5,0.0,0.0,83,0.00,,---,0.00,VWS V14.00,2013-05-02 12:06:00,
2013-05-02 08:11:00,67.6,62.0,17.72,North,5,0.0,0.0,82,0.00,,---,0.00,VWS V14.00,2013-05-02 12:11:00,
2013-05-02 08:16:00,67.8,62.1,17.72,North,5,0.0,0.0,82,0.00,,---,0.00,VWS V14.00,2013-05-02 12:16:00,
2013-05-02 08:21:00,68.0,62.0,17.72,North,5,0.0,0.0,81,0.00,,---,0.00,VWS V14.00,2013-05-02 12:21:00,
2013-05-02 08:26:00,68.2,61.8,17.72,North,11,0.0,0.0,80,0.00,,---,0.00,VWS V14.00,2013-05-02 12:26:00,
2013-05-02 08:31:00,68.9,62.8,17.72,North,11,0.0,0.0,81,0.00,,---,0.00,VWS V14.00,2013-05-02 12:31:00,
2013-05-02 08:36:00,69.3,62.8,17.72,NNE,13,0.0,0.0,80,0.00,,---,0.00,VWS V14.00,2013-05-02 12:36:00,
2013-05-02 08:41:00,69.4,61.9,17.72,North,4,0.0,0.0,77,0.00,,---,0.00,VWS V14.00,2013-05-02 12:41:00,
2013-05-02 08:46:00,69.8,61.2,17.72,North,5,0.0,0.0,74,0.00,,---,0.00,VWS V14.00,2013-05-02 12:46:00,
2013-05-02 08:51:00,69.8,60.0,17.72,North,6,0.0,0.0,71,0.00,,---,0.00,VWS V14.00,2013-05-02 12:51:00,
2013-05-02 08:56:00,70.0,57.7,17.72,North,6,0.0,0.0,65,0.00,,---,0.00,VWS V14.00,2013-05-02 12:56:00,
2013-05-02 09:01:00,70.0,52.1,17.72,North,7,0.0,0.0,53,0.00,,---,0.00,VWS V14.00,2013-05-02 13:01:00,
2013-05-02 09:06:00,70.2,48.4,17.72,North,7,0.0,0.0,46,0.00,,---,0.00,VWS V14.00,2013-05-02 13:06:00,
2013-05-02 09:11:00,70.2,48.4,17.72,North,5,0.0,0.0,46,0.00,,---,0.00,VWS V14.00,2013-05-02 13:11:00,
2013-05-02 09:16:00,70.9,48.5,17.72,North,6,0.0,0.0,45,0.00,,---,0.00,VWS V14.00,2013-05-02 13:16:00,
2013-05-02 09:21:00,70.9,47.3,17.72,North,7,0.0,0.0,43,0.00,,---,0.00,VWS V14.00,2013-05-02 13:21:00,
2013-05-02 09:26:00,70.7,46.5,17.72,NNE,29,0.0,0.0,42,0.00,,---,0.00,VWS V14.00,2013-05-02 13:26:00,
2013-05-02 09:31:00,71.1,46.2,17.72,North,2,0.0,0.0,41,0.00,,---,0.00,VWS V14.00,2013-05-02 13:31:00,
2013-05-02 09:36:00,71.6,46.0,17.72,NNE,13,0.0,0.0,40,0.00,,---,0.00,VWS V14.00,2013-05-02 13:36:00,
2013-05-02 09:41:00,72.0,45.0,17.72,North,9,0.0,0.0,38,0.00,,---,0.00,VWS V14.00,2013-05-02 13:41:00,
2013-05-02 09:46:00,72.5,41.8,17.72,NNE,14,0.0,0.0,33,0.00,,---,0.00,VWS V14.00,2013-05-02 13:46:00,
2013-05-02 09:51:00,72.5,41.8,17.72,NE,38,0.0,0.0,33,0.00,,---,0.00,VWS V14.00,2013-05-02 13:51:00,
2013-05-02 09:56:00,73.8,41.3,17.72,North,9,0.0,0.0,31,0.00,,---,0.00,VWS V14.00,2013-05-02 13:56:00,
2013-05-02 10:01:00,74.3,40.0,17.72,NE,46,0.0,0.0,29,0.00,,---,0.00,VWS V14.00,2013-05-02 14:01:00,
2013-05-02 10:06:00,74.3,39.1,17.72,NE,43,0.0,0.0,28,0.00,,---,0.00,VWS V14.00,2013-05-02 14:06:00,
2013-05-02 10:11:00,74.3,36.2,17.72,NE,44,0.0,0.0,25,0.00,,---,0.00,VWS V14.00,2013-05-02 14:11:00,
2013-05-02 10:16:00,74.5,40.2,17.72,NE,49,0.0,0.0,29,0.00,,---,0.00,VWS V14.00,2013-05-02 14:16:00,
2013-05-02 10:21:00,74.5,36.4,17.72,NNE,31,0.0,0.0,25,0.00,,---,0.00,VWS V14.00,2013-05-02 14:21:00,
2013-05-02 10:26:00,75.0,38.8,17.72,North,357,0.0,0.0,27,0.00,,---,0.00,VWS V14.00,2013-05-02 14:26:00,
2013-05-02 10:31:00,75.2,39.0,17.72,NNE,27,0.0,0.0,27,0.00,,---,0.00,VWS V14.00,2013-05-02 14:31:00,
2013-05-02 10:36:00,75.4,37.2,17.72,NE,37,0.0,0.0,25,0.00,,---,0.00,VWS V14.00,2013-05-02 14:36:00,
2013-05-02 10:41:00,74.7,36.5,17.72,NE,48,0.0,0.0,25,0.00,,---,0.00,VWS V14.00,2013-05-02 14:41:00,
2013-05-02 10:46:00,73.9,38.8,17.72,NNE,20,0.0,0.0,28,0.00,,---,0.00,VWS V14.00,2013-05-02 14:46:00,
2013-05-02 10:51:00,73.8,40.4,17.72,NE,52,0.0,0.0,30,0.00,,---,0.00,VWS V14.00,2013-05-02 14:51:00,
2013-05-02 10:56:00,73.0,39.8,17.72,NE,52,0.0,0.0,30,0.00,,---,0.00,VWS V14.00,2013-05-02 14:56:00,
2013-05-02 11:01:00,72.9,41.3,17.72,NE,52,0.0,0.0,32,0.00,,---,0.00,VWS V14.00,2013-05-02 15:01:00,
2013-05-02 11:06:00,73.2,41.6,17.72,NNE,21,0.0,0.0,32,0.00,,---,0.00,VWS V14.00,2013-05-02 15:06:00,
2013-05-02 11:11:00,73.9,41.4,17.72,NNE,21,0.0,0.0,31,0.00,,---,0.00,VWS V14.00,2013-05-02 15:11:00,
2013-05-02 11:16:00,73.9,41.4,17.72,North,357,0.0,0.0,31,0.00,,---,0.00,VWS V14.00,2013-05-02 15:16:00,
2013-05-02 11:21:00,74.7,39.4,17.72,NE,51,0.0,0.0,28,0.00,,---,0.00,VWS V14.00,2013-05-02 15:21:00,
2013-05-02 11:26:00,75.0,38.8,17.72,NE,51,0.0,0.0,27,0.00,,---,0.00,VWS V14.00,2013-05-02 15:26:00,
2013-05-02 11:31:00,77.0,37.5,17.72,NW,326,0.0,0.0,24,0.00,,---,0.00,VWS V14.00,2013-05-02 15:31:00,
2013-05-02 11:36:00,78.4,35.3,17.72,North,3,0.0,0.0,21,0.00,,---,0.00,VWS V14.00,2013-05-02 15:36:00,
2013-05-02 11:41:00,79.3,34.8,17.72,North,3,0.0,0.0,20,0.00,,---,0.00,VWS V14.00,2013-05-02 15:41:00,
2013-05-02 11:46:00,79.0,30.5,17.72,North,5,0.0,0.0,17,0.00,,---,0.00,VWS V14.00,2013-05-02 15:46:00,
2013-05-02 11:51:00,78.1,31.2,17.72,North,5,0.0,0.0,18,0.00,,---,0.00,VWS V14.00,2013-05-02 15:51:00,
2013-05-02 11:56:00,77.7,34.7,17.72,NNE,26,0.0,0.0,21,0.00,,---,0.00,VWS V14.00,2013-05-02 15:56:00,
2013-05-02 12:01:00,77.7,33.5,17.72,NNE,26,0.0,0.0,20,0.00,,---,0.00,VWS V14.00,2013-05-02 16:01:00,
2013-05-02 12:06:00,78.6,35.5,17.72,NNE,26,0.0,0.0,21,0.00,,---,0.00,VWS V14.00,2013-05-02 16:06:00,
2013-05-02 12:11:00,79.3,30.8,17.72,NNE,26,0.0,0.0,17,0.00,,---,0.00,VWS V14.00,2013-05-02 16:11:00,
2013-05-02 12:16:00,81.1,27.5,17.72,NNE,26,0.0,0.0,14,0.00,,---,0.00,VWS V14.00,2013-05-02 16:16:00,
2013-05-02 12:21:00,81.1,27.5,17.72,North,4,0.0,0.0,14,0.00,,---,0.00,VWS V14.00,2013-05-02 16:21:00,
2013-05-02 12:26:00,81.1,27.5,17.72,North,0,0.0,0.0,14,0.00,,---,0.00,VWS V14.00,2013-05-02 16:26:00,
2013-05-02 12:31:00,79.5,30.9,17.72,North,2,0.0,0.0,17,0.00,,---,0.00,VWS V14.00,2013-05-02 16:31:00,
2013-05-02 12:36:00,80.1,31.4,17.72,North,2,0.0,0.0,17,0.00,,---,0.00,VWS V14.00,2013-05-02 16:36:00,
2013-05-02 12:41:00,80.4,28.6,17.72,North,2,0.0,0.0,15,0.00,,---,0.00,VWS V14.00,2013-05-02 16:41:00,
2013-05-02 12:46:00,79.5,27.9,17.72,North,2,0.0,0.0,15,0.00,,---,0.00,VWS V14.00,2013-05-02 16:46:00,
2013-05-02 12:51:00,79.0,30.5,17.72,North,2,0.0,0.0,17,0.00,,---,0.00,VWS V14.00,2013-05-02 16:51:00,
2013-05-02 12:56:00,80.1,35.4,17.72,North,2,0.0,0.0,20,0.00,,---,0.00,VWS V14.00,2013-05-02 16:56:00,
2013-05-02 13:01:00,80.8,32.0,17.72,North,2,0.0,0.0,17,0.00,,---,0.00,VWS V14.00,2013-05-02 17:01:00,
2013-05-02 13:06:00,80.8,32.0,17.72,North,2,0.0,0.0,17,0.00,,---,0.00,VWS V14.00,2013-05-02 17:06:00,
2013-05-02 13:11:00,79.7,28.0,17.72,North,2,0.0,0.0,15,0.00,,---,0.00,VWS V14.00,2013-05-02 17:11:00,
2013-05-02 13:16:00,79.3,30.8,17.72,North,2,0.0,0.0,17,0.00,,---,0.00,VWS V14.00,2013-05-02 17:16:00,
2013-05-02 13:21:00,80.8,27.2,17.72,North,2,0.0,0.0,14,0.00,,---,0.00,VWS V14.00,2013-05-02 17:21:00,
2013-05-02 13:26:00,81.9,28.0,17.72,North,357,0.0,0.0,14,0.00,,---,0.00,VWS V14.00,2013-05-02 17:26:00,
2013-05-02 13:31:00,81.5,27.8,17.72,North,9,0.0,0.0,14,0.00,,---,0.00,VWS V14.00,2013-05-02 17:31:00,
2013-05-02 13:36:00,81.3,27.6,17.72,North,9,0.0,0.0,14,0.00,,---,0.00,VWS V14.00,2013-05-02 17:36:00,
2013-05-02 13:41:00,80.6,27.0,17.72,North,9,0.0,0.0,14,0.00,,---,0.00,VWS V14.00,2013-05-02 17:41:00,
2013-05-02 13:46:00,79.2,30.6,17.72,North,9,0.0,0.0,17,0.00,,---,0.00,VWS V14.00,2013-05-02 17:46:00,
2013-05-02 13:51:00,78.4,31.5,17.72,North,9,0.0,0.0,18,0.00,,---,0.00,VWS V14.00,2013-05-02 17:51:00,
2013-05-02 13:56:00,78.6,34.2,17.72,North,9,0.0,0.0,20,0.00,,---,0.00,VWS V14.00,2013-05-02 17:56:00,
2013-05-02 14:01:00,78.4,34.1,17.72,North,9,0.0,0.0,20,0.00,,---,0.00,VWS V14.00,2013-05-02 18:01:00,
2013-05-02 14:06:00,78.6,31.6,17.72,North,9,0.0,0.0,18,0.00,,---,0.00,VWS V14.00,2013-05-02 18:06:00,
2013-05-02 14:11:00,79.3,34.8,17.72,North,9,0.0,0.0,20,0.00,,---,0.00,VWS V14.00,2013-05-02 18:11:00,
2013-05-02 14:16:00,79.9,31.2,17.72,North,9,0.0,0.0,17,0.00,,---,0.00,VWS V14.00,2013-05-02 18:16:00,
2013-05-02 14:21:00,79.5,30.9,17.72,North,9,0.0,0.0,17,0.00,,---,0.00,VWS V14.00,2013-05-02 18:21:00,
2013-05-02 14:26:00,78.6,31.6,17.72,North,9,0.0,0.0,18,0.00,,---,0.00,VWS V14.00,2013-05-02 18:26:00,
2013-05-02 14:31:00,77.9,33.6,17.72,NW,323,0.0,0.0,20,0.00,,---,0.00,VWS V14.00,2013-05-02 18:31:00,
2013-05-02 14:36:00,77.2,34.3,17.72,NW,326,0.0,0.0,21,0.00,,---,0.00,VWS V14.00,2013-05-02 18:36:00,
2013-05-02 14:41:00,76.8,35.1,17.72,North,353,0.0,0.0,22,0.00,,---,0.00,VWS V14.00,2013-05-02 18:41:00,
2013-05-02 14:46:00,76.5,34.8,17.72,North,353,0.0,0.0,22,0.00,,---,0.00,VWS V14.00,2013-05-02 18:46:00,
2013-05-02 14:51:00,76.1,35.7,17.72,North,353,0.0,0.0,23,0.00,,---,0.00,VWS V14.00,2013-05-02 18:51:00,
2013-05-02 14:56:00,76.1,36.7,17.72,North,353,0.0,0.0,24,0.00,,---,0.00,VWS V14.00,2013-05-02 18:56:00,
2013-05-02 15:01:00,76.6,38.2,17.72,NNW,343,0.0,0.0,25,0.00,,---,0.00,VWS V14.00,2013-05-02 19:01:00,
2013-05-02 15:06:00,77.2,36.5,17.72,North,353,0.0,0.0,23,0.00,,---,0.00,VWS V14.00,2013-05-02 19:06:00,
2013-05-02 15:11:00,77.0,35.3,17.72,North,353,0.0,0.0,22,0.00,,---,0.00,VWS V14.00,2013-05-02 19:11:00,
2013-05-02 15:16:00,77.4,36.7,17.72,North,1,0.0,0.0,23,0.00,,---,0.00,VWS V14.00,2013-05-02 19:16:00,
2013-05-02 15:21:00,78.1,35.0,17.72,NNW,346,0.0,0.0,21,0.00,,---,0.00,VWS V14.00,2013-05-02 19:21:00,
2013-05-02 15:26:00,77.7,34.7,17.72,North,353,0.0,0.0,21,0.00,,---,0.00,VWS V14.00,2013-05-02 19:26:00,
2013-05-02 15:31:00,77.5,34.6,17.72,North,8,0.0,0.0,21,0.00,,---,0.00,VWS V14.00,2013-05-02 19:31:00,
2013-05-02 15:36:00,77.7,35.9,17.72,North,8,0.0,0.0,22,0.00,,---,0.00,VWS V14.00,2013-05-02 19:36:00,
2013-05-02 15:41:00,77.9,34.9,17.72,NNW,341,0.0,0.0,21,0.00,,---,0.00,VWS V14.00,2013-05-02 19:41:00,
2013-05-02 15:46:00,77.4,34.4,17.72,NNW,341,0.0,0.0,21,0.00,,---,0.00,VWS V14.00,2013-05-02 19:46:00,
2013-05-02 15:51:00,77.7,35.9,17.72,NNW,345,0.0,0.0,22,0.00,,---,0.00,VWS V14.00,2013-05-02 19:51:00,
2013-05-02 15:55:00,77.7,35.9,17.72,North,353,0.0,0.0,22,0.00,,---,0.00,VWS V14.00,2013-05-02 19:55:00,
2013-05-02 16:00:00,77.2,34.3,17.72,North,353,0.0,0.0,21,0.00,,---,0.00,VWS V14.00,2013-05-02 20:00:00,
2013-05-02 16:05:00,76.3,35.8,17.72,North,353,0.0,0.0,23,0.00,,---,0.00,VWS V14.00,2013-05-02 20:05:00,
2013-05-02 16:10:00,76.3,36.9,17.72,NNW,341,0.0,0.0,24,0.00,,---,0.00,VWS V14.00,2013-05-02 20:10:00,
2013-05-02 16:15:00,76.3,36.9,17.72,NNW,331,0.0,0.0,24,0.00,,---,0.00,VWS V14.00,2013-05-02 20:15:00,
2013-05-02 16:20:00,75.9,37.6,17.72,NNW,331,0.0,0.0,25,0.00,,---,0.00,VWS V14.00,2013-05-02 20:20:00,
2013-05-02 16:25:00,75.6,40.2,17.72,NNW,331,0.0,0.0,28,0.00,,---,0.00,VWS V14.00,2013-05-02 20:25:00,
2013-05-02 16:30:00,75.2,42.5,17.72,NNW,331,0.0,0.0,31,0.00,,---,0.00,VWS V14.00,2013-05-02 20:30:00,
2013-05-02 16:35:00,74.7,44.5,17.72,NNW,331,0.0,0.0,34,0.04,,---,0.04,VWS V14.00,2013-05-02 20:35:00,
2013-05-02 16:40:00,73.4,43.3,17.72,NNW,331,0.0,0.0,34,0.04,,---,0.04,VWS V14.00,2013-05-02 20:40:00,
2013-05-02 16:45:00,72.9,44.4,17.72,NNW,331,0.0,0.0,36,0.04,,---,0.04,VWS V14.00,2013-05-02 20:45:00,
2013-05-02 16:50:00,72.0,43.6,17.72,NNW,331,0.0,0.0,36,0.04,,---,0.04,VWS V14.00,2013-05-02 20:50:00,
2013-05-02 16:55:00,71.8,43.4,17.72,NNW,331,0.0,0.0,36,0.04,,---,0.04,VWS V14.00,2013-05-02 20:55:00,
2013-05-02 17:00:00,71.6,44.7,17.72,NNW,331,0.0,0.0,38,0.04,,---,0.04,VWS V14.00,2013-05-02 21:00:00,
2013-05-02 17:05:00,71.6,46.0,17.72,NNW,331,0.0,0.0,40,0.04,,---,0.04,VWS V14.00,2013-05-02 21:05:00,
2013-05-02 17:10:00,71.6,46.7,17.72,NNW,331,0.0,0.0,41,0.08,,---,0.08,VWS V14.00,2013-05-02 21:10:00,
2013-05-02 17:15:00,72.0,47.0,17.72,NNW,331,0.0,0.0,41,0.08,,---,0.08,VWS V14.00,2013-05-02 21:15:00,
2013-05-02 17:20:00,72.0,47.0,17.72,NNW,331,0.0,0.0,41,0.08,,---,0.08,VWS V14.00,2013-05-02 21:20:00,
2013-05-02 17:25:00,72.3,47.3,17.72,NNW,331,0.0,0.0,41,0.08,,---,0.08,VWS V14.00,2013-05-02 21:25:00,
2013-05-02 17:30:00,72.3,46.0,17.72,NNW,331,0.0,0.0,39,0.08,,---,0.08,VWS V14.00,2013-05-02 21:30:00,
2013-05-02 17:35:00,72.7,46.3,17.72,NNW,331,0.0,0.0,39,0.04,,---,0.08,VWS V14.00,2013-05-02 21:35:00,
2013-05-02 17:40:00,73.0,47.3,17.72,NNW,331,0.0,0.0,40,0.04,,---,0.08,VWS V14.00,2013-05-02 21:40:00,
2013-05-02 17:45:00,73.4,47.0,17.72,NNW,331,0.0,0.0,39,0.04,,---,0.08,VWS V14.00,2013-05-02 21:45:00,
2013-05-02 17:50:00,73.6,46.4,17.72,NNW,331,0.0,0.0,38,0.04,,---,0.08,VWS V14.00,2013-05-02 21:50:00,
2013-05-02 17:55:00,73.6,45.7,17.72,NNW,331,0.0,0.0,37,0.04,,---,0.08,VWS V14.00,2013-05-02 21:55:00,
2013-05-02 18:00:00,73.2,45.4,17.72,NNW,331,0.0,0.0,37,0.04,,---,0.08,VWS V14.00,2013-05-02 22:00:00,
2013-05-02 18:05:00,73.2,46.1,17.72,NNW,331,0.0,0.0,38,0.04,,---,0.08,VWS V14.00,2013-05-02 22:05:00,
2013-05-02 18:10:00,73.4,45.6,17.72,NNW,334,0.0,0.0,37,0.00,,---,0.08,VWS V14.00,2013-05-02 22:10:00,
2013-05-02 18:15:00,73.6,46.4,17.72,NNW,334,0.0,0.0,38,0.00,,---,0.08,VWS V14.00,2013-05-02 22:15:00,
2013-05-02 18:20:00,73.6,46.4,17.72,NNW,334,0.0,0.0,38,0.00,,---,0.08,VWS V14.00,2013-05-02 22:20:00,
2013-05-02 18:25:00,73.4,44.8,17.72,NNW,334,0.0,0.0,36,0.00,,---,0.08,VWS V14.00,2013-05-02 22:25:00,
2013-05-02 18:30:00,73.0,44.5,17.72,NNW,334,0.0,0.0,36,0.00,,---,0.08,VWS V14.00,2013-05-02 22:30:00,
2013-05-02 18:35:00,73.2,45.4,17.72,NNW,334,0.0,0.0,37,0.00,,---,0.08,VWS V14.00,2013-05-02 22:35:00,
2013-05-02 18:40:00,73.6,45.7,17.72,NNW,334,0.0,0.0,37,0.00,,---,0.08,VWS V14.00,2013-05-02 22:40:00,
2013-05-02 18:45:00,73.9,46.0,17.72,NNW,334,0.0,0.0,37,0.00,,---,0.08,VWS V14.00,2013-05-02 22:45:00,
2013-05-02 18:50:00,73.9,44.6,17.72,NNW,334,0.0,0.0,35,0.00,,---,0.08,VWS V14.00,2013-05-02 22:50:00,
2013-05-02 18:55:00,73.9,44.6,17.72,NNW,334,0.0,0.0,35,0.00,,---,0.08,VWS V14.00,2013-05-02 22:55:00,
2013-05-02 19:00:00,73.6,45.0,17.72,NNW,334,0.0,0.0,36,0.00,,---,0.08,VWS V14.00,2013-05-02 23:00:00,
2013-05-02 19:05:00,73.6,45.0,17.72,NNW,334,0.0,0.0,36,0.00,,---,0.08,VWS V14.00,2013-05-02 23:05:00,
2013-05-02 19:10:00,73.6,45.0,17.72,NNW,334,0.0,0.0,36,0.00,,---,0.08,VWS V14.00,2013-05-02 23:10:00,
2013-05-02 19:15:00,73.2,45.4,17.72,NNW,330,0.0,0.0,37,0.00,,---,0.08,VWS V14.00,2013-05-02 23:15:00,
2013-05-02 19:20:00,72.9,45.1,17.72,NNW,330,0.0,0.0,37,0.00,,---,0.08,VWS V14.00,2013-05-02 23:20:00,
2013-05-02 19:25:00,72.9,45.1,17.72,NNW,330,0.0,0.0,37,0.00,,---,0.08,VWS V14.00,2013-05-02 23:25:00,
2013-05-02 19:30:00,72.3,46.0,17.72,NNW,330,0.0,0.0,39,0.00,,---,0.08,VWS V14.00,2013-05-02 23:30:00,
2013-05-02 19:35:00,72.0,47.0,17.72,NNW,330,0.0,0.0,41,0.00,,---,0.08,VWS V14.00,2013-05-02 23:35:00,
2013-05-02 19:40:00,71.8,46.8,17.72,NNW,330,0.0,0.0,41,0.00,,---,0.08,VWS V14.00,2013-05-02 23:40:00,
2013-05-02 19:45:00,71.6,47.3,17.72,NNW,330,0.0,0.0,42,0.00,,---,0.08,VWS V14.00,2013-05-02 23:45:00,
2013-05-02 19:50:00,71.4,47.2,17.72,NNW,330,0.0,0.0,42,0.00,,---,0.08,VWS V14.00,2013-05-02 23:50:00,
2013-05-02 19:55:00,71.2,47.6,17.72,NNW,330,0.0,0.0,43,0.00,,---,0.08,VWS V14.00,2013-05-02 23:55:00,
2013-05-02 20:00:00,71.2,47.6,17.72,NNW,330,0.0,0.0,43,0.00,,---,0.08,VWS V14.00,2013-05-03 00:00:00,
2013-05-02 20:05:00,71.1,48.1,17.72,NNW,330,0.0,0.0,44,0.00,,---,0.08,VWS V14.00,2013-05-03 00:05:00,
2013-05-02 20:10:00,71.1,48.1,17.72,NNW,336,0.0,0.0,44,0.00,,---,0.08,VWS V14.00,2013-05-03 00:10:00,
2013-05-02 20:15:00,71.1,48.1,17.72,NNW,336,0.0,0.0,44,0.00,,---,0.08,VWS V14.00,2013-05-03 00:15:00,
2013-05-02 20:20:00,70.7,48.3,17.72,NNW,336,0.0,0.0,45,0.00,,---,0.08,VWS V14.00,2013-05-03 00:20:00,
2013-05-02 20:25:00,70.7,48.3,17.72,NNW,336,0.0,0.0,45,0.00,,---,0.08,VWS V14.00,2013-05-03 00:25:00,
2013-05-02 20:30:00,70.5,48.2,17.72,NNW,336,0.0,0.0,45,0.00,,---,0.08,VWS V14.00,2013-05-03 00:30:00,
2013-05-02 20:35:00,70.3,48.0,17.72,NNW,336,0.0,0.0,45,0.00,,---,0.08,VWS V14.00,2013-05-03 00:35:00,
2013-05-02 20:40:00,70.2,47.8,17.72,NNW,336,0.0,0.0,45,0.00,,---,0.08,VWS V14.00,2013-05-03 00:40:00,
2013-05-02 20:45:00,69.8,48.1,17.72,NNW,336,0.0,0.0,46,0.00,,---,0.08,VWS V14.00,2013-05-03 00:45:00,
2013-05-02 20:50:00,69.6,48.0,17.72,NNW,336,0.0,0.0,46,0.00,,---,0.08,VWS V14.00,2013-05-03 00:50:00,
2013-05-02 20:55:00,69.6,48.0,17.72,NNW,336,0.0,0.0,46,0.00,,---,0.08,VWS V14.00,2013-05-03 00:55:00,
2013-05-02 21:00:00,69.4,48.3,17.72,NNW,336,0.0,0.0,47,0.00,,---,0.08,VWS V14.00,2013-05-03 01:00:00,
2013-05-02 21:05:00,69.4,48.3,17.72,NNW,336,0.0,0.0,47,0.00,,---,0.08,VWS V14.00,2013-05-03 01:05:00,
2013-05-02 21:10:00,69.3,48.2,17.72,NNW,336,0.0,0.0,47,0.00,,---,0.08,VWS V14.00,2013-05-03 01:10:00,
2013-05-02 21:15:00,69.1,48.0,17.72,NNW,336,0.0,0.0,47,0.00,,---,0.08,VWS V14.00,2013-05-03 01:15:00,
2013-05-02 21:20:00,69.1,48.0,17.72,NNW,336,0.0,0.0,47,0.00,,---,0.08,VWS V14.00,2013-05-03 01:20:00,
2013-05-02 21:25:00,68.9,48.4,17.72,NNW,336,0.0,0.0,48,0.00,,---,0.08,VWS V14.00,2013-05-03 01:25:00,
2013-05-02 21:30:00,68.9,48.4,17.72,NNW,336,0.0,0.0,48,0.00,,---,0.08,VWS V14.00,2013-05-03 01:30:00,
2013-05-02 21:35:00,68.7,48.3,17.72,NNW,336,0.0,0.0,48,0.00,,---,0.08,VWS V14.00,2013-05-03 01:35:00,
2013-05-02 21:40:00,68.7,48.3,17.72,NNW,336,0.0,0.0,48,0.00,,---,0.08,VWS V14.00,2013-05-03 01:40:00,
2013-05-02 21:45:00,68.9,49.0,17.72,NNW,336,0.0,0.0,49,0.00,,---,0.08,VWS V14.00,2013-05-03 01:45:00,
2013-05-02 21:50:00,68.9,49.5,17.72,NNW,336,0.0,0.0,50,0.00,,---,0.08,VWS V14.00,2013-05-03 01:50:00,
2013-05-02 21:55:00,69.1,49.7,17.72,NNW,336,0.0,0.0,50,0.00,,---,0.08,VWS V14.00,2013-05-03 01:55:00,
2013-05-02 22:00:00,69.1,50.2,17.72,NNW,336,0.0,0.0,51,0.00,,---,0.08,VWS V14.00,2013-05-03 02:00:00,
2013-05-02 22:05:00,69.1,50.2,17.72,NNW,336,0.0,0.0,51,0.00,,---,0.08,VWS V14.00,2013-05-03 02:05:00,
2013-05-02 22:10:00,69.3,50.4,17.72,NNW,336,0.0,0.0,51,0.00,,---,0.08,VWS V14.00,2013-05-03 02:10:00,
2013-05-02 22:15:00,69.3,50.9,17.72,NNW,336,0.0,0.0,52,0.00,,---,0.08,VWS V14.00,2013-05-03 02:15:00,
2013-05-02 22:20:00,69.1,50.7,17.72,NNW,336,0.0,0.0,52,0.00,,---,0.08,VWS V14.00,2013-05-03 02:20:00,
2013-05-02 22:25:00,69.3,50.9,17.72,NNW,336,0.0,0.0,52,0.00,,---,0.08,VWS V14.00,2013-05-03 02:25:00,
2013-05-02 22:30:00,69.1,51.2,17.72,NNW,336,0.0,0.0,53,0.00,,---,0.08,VWS V14.00,2013-05-03 02:30:00,
2013-05-02 22:35:00,69.1,51.2,17.72,NNW,336,0.0,0.0,53,0.00,,---,0.08,VWS V14.00,2013-05-03 02:35:00,
2013-05-02 22:40:00,68.9,51.1,17.72,NNW,336,0.0,0.0,53,0.00,,---,0.08,VWS V14.00,2013-05-03 02:40:00,
2013-05-02 22:45:00,68.9,51.1,17.72,NNW,336,0.0,0.0,53,0.00,,---,0.08,VWS V14.00,2013-05-03 02:45:00,
2013-05-02 22:50:00,68.9,51.1,17.72,NNW,336,0.0,0.0,53,0.00,,---,0.08,VWS V14.00,2013-05-03 02:50:00,
2013-05-02 22:55:00,68.5,50.8,17.72,NNW,336,0.0,0.0,53,0.00,,---,0.08,VWS V14.00,2013-05-03 02:55:00,
2013-05-02 23:00:00,68.5,50.8,17.72,NNW,336,0.0,0.0,53,0.00,,---,0.08,VWS V14.00,2013-05-03 03:00:00,
2013-05-02 23:05:00,68.2,50.9,17.72,NNW,336,0.0,0.0,54,0.00,,---,0.08,VWS V14.00,2013-05-03 03:05:00,
2013-05-02 23:10:00,68.0,50.8,17.72,NNW,336,0.0,0.0,54,0.00,,---,0.08,VWS V14.00,2013-05-03 03:10:00,
2013-05-02 23:15:00,68.0,50.8,17.72,NNW,336,0.0,0.0,54,0.00,,---,0.08,VWS V14.00,2013-05-03 03:15:00,
2013-05-02 23:20:00,68.0,51.2,17.72,NNW,336,0.0,0.0,55,0.00,,---,0.08,VWS V14.00,2013-05-03 03:20:00,
2013-05-02 23:25:00,68.0,51.7,17.72,NNW,336,0.0,0.0,56,0.00,,---,0.08,VWS V14.00,2013-05-03 03:25:00,
2013-05-02 23:30:00,68.2,52.4,17.72,NNW,336,0.0,0.0,57,0.00,,---,0.08,VWS V14.00,2013-05-03 03:30:00,
2013-05-02 23:35:00,68.2,52.4,17.72,NNW,336,0.0,0.0,57,0.00,,---,0.08,VWS V14.00,2013-05-03 03:35:00,
2013-05-02 23:40:00,68.2,52.4,17.72,NNW,336,0.0,0.0,57,0.00,,---,0.08,VWS V14.00,2013-05-03 03:40:00,
2013-05-02 23:45:00,68.2,52.9,17.72,NNW,336,0.0,0.0,58,0.00,,---,0.08,VWS V14.00,2013-05-03 03:45:00,
2013-05-02 23:50:00,68.2,53.8,17.72,NNW,336,0.0,0.0,60,0.00,,---,0.08,VWS V14.00,2013-05-03 03:50:00,
2013-05-02 23:55:00,68.2,54.2,17.72,NNW,336,0.0,0.0,61,0.00,,---,0.08,VWS V14.00,2013-05-03 03:55:00,